sensor_id;sensor_type;location;lat;lon;timestamp;P1;durP1;ratioP1;P2;durP2;ratioP2
22080;SDS011;11207;59.512;18.050;2022-07-29T00:01:20;1.57;;;1.40;;
22080;SDS011;11207;59.512;18.050;2022-07-29T00:03:45;1.43;;;1.40;;
22080;SDS011;11207;59.512;18.050;2022-07-29T00:06:11;1.37;;;1.37;;
22080;SDS011;11207;59.512;18.050;2022-07-29T00:08:37;1.60;;;1.50;;
22080;SDS011;11207;59.512;18.050;2022-07-29T00:11:02;1.57;;;1.47;;
22080;SDS011;11207;59.512;18.050;2022-07-29T00:13:29;1.40;;;1.40;;
22080;SDS011;11207;59.512;18.050;2022-07-29T00:15:54;1.50;;;1.40;;
22080;SDS011;11207;59.512;18.050;2022-07-29T00:18:20;1.57;;;1.50;;
22080;SDS011;11207;59.512;18.050;2022-07-29T00:20:46;1.40;;;1.40;;
22080;SDS011;11207;59.512;18.050;2022-07-29T00:23:11;1.53;;;1.43;;
22080;SDS011;11207;59.512;18.050;2022-07-29T00:25:37;2.20;;;1.50;;
22080;SDS011;11207;59.512;18.050;2022-07-29T00:28:02;2.40;;;1.40;;
22080;SDS011;11207;59.512;18.050;2022-07-29T00:30:28;1.60;;;1.50;;
22080;SDS011;11207;59.512;18.050;2022-07-29T00:32:54;2.30;;;1.70;;
22080;SDS011;11207;59.512;18.050;2022-07-29T00:35:19;1.40;;;1.40;;
22080;SDS011;11207;59.512;18.050;2022-07-29T00:38:03;1.50;;;1.50;;
22080;SDS011;11207;59.512;18.050;2022-07-29T00:40:29;2.03;;;1.57;;
22080;SDS011;11207;59.512;18.050;2022-07-29T00:42:55;1.73;;;1.70;;
22080;SDS011;11207;59.512;18.050;2022-07-29T00:45:20;1.70;;;1.60;;
22080;SDS011;11207;59.512;18.050;2022-07-29T00:47:47;3.27;;;1.50;;
22080;SDS011;11207;59.512;18.050;2022-07-29T00:50:13;1.70;;;1.60;;
22080;SDS011;11207;59.512;18.050;2022-07-29T00:52:39;1.40;;;1.40;;
22080;SDS011;11207;59.512;18.050;2022-07-29T00:55:07;1.60;;;1.50;;
22080;SDS011;11207;59.512;18.050;2022-07-29T00:57:35;1.57;;;1.50;;
22080;SDS011;11207;59.512;18.050;2022-07-29T01:00:02;1.50;;;1.50;;
22080;SDS011;11207;59.512;18.050;2022-07-29T01:02:30;1.70;;;1.60;;
22080;SDS011;11207;59.512;18.050;2022-07-29T01:04:56;1.53;;;1.50;;
22080;SDS011;11207;59.512;18.050;2022-07-29T01:07:22;1.73;;;1.63;;
22080;SDS011;11207;59.512;18.050;2022-07-29T01:09:50;1.83;;;1.60;;
22080;SDS011;11207;59.512;18.050;2022-07-29T01:12:19;1.80;;;1.70;;
22080;SDS011;11207;59.512;18.050;2022-07-29T01:14:49;1.53;;;1.50;;
22080;SDS011;11207;59.512;18.050;2022-07-29T01:17:18;1.60;;;1.50;;
22080;SDS011;11207;59.512;18.050;2022-07-29T01:22:27;1.43;;;1.43;;
22080;SDS011;11207;59.512;18.050;2022-07-29T01:25:22;1.40;;;1.40;;
22080;SDS011;11207;59.512;18.050;2022-07-29T01:28:17;3.57;;;1.60;;
22080;SDS011;11207;59.512;18.050;2022-07-29T01:30:55;1.80;;;1.70;;
22080;SDS011;11207;59.512;18.050;2022-07-29T01:33:21;1.50;;;1.50;;
22080;SDS011;11207;59.512;18.050;2022-07-29T01:36:10;1.63;;;1.50;;
22080;SDS011;11207;59.512;18.050;2022-07-29T01:38:39;1.70;;;1.60;;
22080;SDS011;11207;59.512;18.050;2022-07-29T01:41:15;1.70;;;1.60;;
22080;SDS011;11207;59.512;18.050;2022-07-29T01:43:53;1.90;;;1.70;;
22080;SDS011;11207;59.512;18.050;2022-07-29T01:46:37;1.80;;;1.70;;
22080;SDS011;11207;59.512;18.050;2022-07-29T01:51:43;1.50;;;1.50;;
22080;SDS011;11207;59.512;18.050;2022-07-29T01:56:45;1.73;;;1.60;;
22080;SDS011;11207;59.512;18.050;2022-07-29T01:59:14;1.40;;;1.40;;
22080;SDS011;11207;59.512;18.050;2022-07-29T02:01:42;1.87;;;1.77;;
22080;SDS011;11207;59.512;18.050;2022-07-29T02:04:10;1.90;;;1.80;;
22080;SDS011;11207;59.512;18.050;2022-07-29T02:06:38;4.10;;;1.63;;
22080;SDS011;11207;59.512;18.050;2022-07-29T02:09:07;1.70;;;1.60;;
22080;SDS011;11207;59.512;18.050;2022-07-29T02:11:37;2.17;;;1.70;;
22080;SDS011;11207;59.512;18.050;2022-07-29T02:14:04;1.87;;;1.77;;
22080;SDS011;11207;59.512;18.050;2022-07-29T02:16:32;2.37;;;1.70;;
22080;SDS011;11207;59.512;18.050;2022-07-29T02:19:01;1.67;;;1.63;;
22080;SDS011;11207;59.512;18.050;2022-07-29T02:21:27;1.67;;;1.57;;
22080;SDS011;11207;59.512;18.050;2022-07-29T02:23:56;1.70;;;1.60;;
22080;SDS011;11207;59.512;18.050;2022-07-29T02:26:24;1.73;;;1.63;;
22080;SDS011;11207;59.512;18.050;2022-07-29T02:28:51;1.77;;;1.67;;
22080;SDS011;11207;59.512;18.050;2022-07-29T02:31:23;2.57;;;1.67;;
22080;SDS011;11207;59.512;18.050;2022-07-29T02:33:51;1.70;;;1.60;;
22080;SDS011;11207;59.512;18.050;2022-07-29T02:36:18;1.70;;;1.60;;
22080;SDS011;11207;59.512;18.050;2022-07-29T02:38:47;1.73;;;1.63;;
22080;SDS011;11207;59.512;18.050;2022-07-29T02:41:20;1.73;;;1.63;;
22080;SDS011;11207;59.512;18.050;2022-07-29T02:43:50;1.70;;;1.60;;
22080;SDS011;11207;59.512;18.050;2022-07-29T02:46:21;1.80;;;1.70;;
22080;SDS011;11207;59.512;18.050;2022-07-29T02:49:09;2.40;;;1.70;;
22080;SDS011;11207;59.512;18.050;2022-07-29T02:51:56;1.70;;;1.60;;
22080;SDS011;11207;59.512;18.050;2022-07-29T02:56:54;1.80;;;1.70;;
22080;SDS011;11207;59.512;18.050;2022-07-29T02:59:26;1.70;;;1.60;;
22080;SDS011;11207;59.512;18.050;2022-07-29T03:01:53;1.87;;;1.77;;
22080;SDS011;11207;59.512;18.050;2022-07-29T03:04:22;1.70;;;1.60;;
22080;SDS011;11207;59.512;18.050;2022-07-29T03:06:50;1.73;;;1.63;;
22080;SDS011;11207;59.512;18.050;2022-07-29T03:09:18;1.53;;;1.53;;
22080;SDS011;11207;59.512;18.050;2022-07-29T03:11:44;1.60;;;1.50;;
22080;SDS011;11207;59.512;18.050;2022-07-29T03:14:10;1.50;;;1.50;;
22080;SDS011;11207;59.512;18.050;2022-07-29T03:16:37;1.63;;;1.60;;
22080;SDS011;11207;59.512;18.050;2022-07-29T03:19:03;1.70;;;1.60;;
22080;SDS011;11207;59.512;18.050;2022-07-29T03:21:29;1.80;;;1.70;;
22080;SDS011;11207;59.512;18.050;2022-07-29T03:23:55;1.83;;;1.77;;
22080;SDS011;11207;59.512;18.050;2022-07-29T03:26:21;1.80;;;1.70;;
22080;SDS011;11207;59.512;18.050;2022-07-29T03:28:47;1.97;;;1.87;;
22080;SDS011;11207;59.512;18.050;2022-07-29T03:31:12;1.67;;;1.67;;
22080;SDS011;11207;59.512;18.050;2022-07-29T03:33:38;2.30;;;1.73;;
22080;SDS011;11207;59.512;18.050;2022-07-29T03:36:03;1.90;;;1.80;;
22080;SDS011;11207;59.512;18.050;2022-07-29T03:38:29;1.73;;;1.73;;
22080;SDS011;11207;59.512;18.050;2022-07-29T03:41:00;2.03;;;1.90;;
22080;SDS011;11207;59.512;18.050;2022-07-29T03:43:30;1.70;;;1.60;;
22080;SDS011;11207;59.512;18.050;2022-07-29T03:45:59;1.60;;;1.60;;
22080;SDS011;11207;59.512;18.050;2022-07-29T03:48:26;1.80;;;1.70;;
22080;SDS011;11207;59.512;18.050;2022-07-29T03:50:55;1.63;;;1.53;;
22080;SDS011;11207;59.512;18.050;2022-07-29T03:53:21;1.63;;;1.63;;
22080;SDS011;11207;59.512;18.050;2022-07-29T03:55:48;1.97;;;1.80;;
22080;SDS011;11207;59.512;18.050;2022-07-29T03:58:18;1.70;;;1.67;;
22080;SDS011;11207;59.512;18.050;2022-07-29T04:00:44;1.70;;;1.60;;
22080;SDS011;11207;59.512;18.050;2022-07-29T04:03:11;1.60;;;1.60;;
22080;SDS011;11207;59.512;18.050;2022-07-29T04:05:38;1.70;;;1.60;;
22080;SDS011;11207;59.512;18.050;2022-07-29T04:08:04;1.93;;;1.83;;
22080;SDS011;11207;59.512;18.050;2022-07-29T04:10:30;1.83;;;1.73;;
22080;SDS011;11207;59.512;18.050;2022-07-29T04:12:55;1.80;;;1.70;;
22080;SDS011;11207;59.512;18.050;2022-07-29T04:15:21;2.10;;;2.00;;
22080;SDS011;11207;59.512;18.050;2022-07-29T04:17:47;1.87;;;1.77;;
22080;SDS011;11207;59.512;18.050;2022-07-29T04:20:12;1.77;;;1.70;;
22080;SDS011;11207;59.512;18.050;2022-07-29T04:22:41;1.73;;;1.63;;
22080;SDS011;11207;59.512;18.050;2022-07-29T04:25:07;1.60;;;1.50;;
22080;SDS011;11207;59.512;18.050;2022-07-29T04:27:33;1.60;;;1.60;;
22080;SDS011;11207;59.512;18.050;2022-07-29T04:29:58;1.93;;;1.83;;
22080;SDS011;11207;59.512;18.050;2022-07-29T04:32:24;2.77;;;1.73;;
22080;SDS011;11207;59.512;18.050;2022-07-29T04:34:51;2.00;;;1.90;;
22080;SDS011;11207;59.512;18.050;2022-07-29T04:37:17;1.67;;;1.63;;
22080;SDS011;11207;59.512;18.050;2022-07-29T04:39:43;2.07;;;1.97;;
22080;SDS011;11207;59.512;18.050;2022-07-29T04:42:09;2.00;;;1.90;;
22080;SDS011;11207;59.512;18.050;2022-07-29T04:44:34;1.80;;;1.70;;
22080;SDS011;11207;59.512;18.050;2022-07-29T04:47:03;1.90;;;1.80;;
22080;SDS011;11207;59.512;18.050;2022-07-29T04:49:38;1.87;;;1.77;;
22080;SDS011;11207;59.512;18.050;2022-07-29T04:52:04;1.80;;;1.70;;
22080;SDS011;11207;59.512;18.050;2022-07-29T04:54:30;1.90;;;1.80;;
22080;SDS011;11207;59.512;18.050;2022-07-29T04:56:55;2.00;;;1.77;;
22080;SDS011;11207;59.512;18.050;2022-07-29T04:59:21;2.00;;;1.80;;
22080;SDS011;11207;59.512;18.050;2022-07-29T05:01:47;2.27;;;2.17;;
22080;SDS011;11207;59.512;18.050;2022-07-29T05:04:13;2.00;;;1.90;;
22080;SDS011;11207;59.512;18.050;2022-07-29T05:06:38;3.53;;;1.60;;
22080;SDS011;11207;59.512;18.050;2022-07-29T05:09:04;3.57;;;1.70;;
22080;SDS011;11207;59.512;18.050;2022-07-29T05:11:29;1.83;;;1.70;;
22080;SDS011;11207;59.512;18.050;2022-07-29T05:13:55;3.00;;;1.60;;
22080;SDS011;11207;59.512;18.050;2022-07-29T05:16:20;1.90;;;1.80;;
22080;SDS011;11207;59.512;18.050;2022-07-29T05:18:46;1.87;;;1.77;;
22080;SDS011;11207;59.512;18.050;2022-07-29T05:21:12;1.83;;;1.70;;
22080;SDS011;11207;59.512;18.050;2022-07-29T05:23:37;1.80;;;1.70;;
22080;SDS011;11207;59.512;18.050;2022-07-29T05:26:03;2.97;;;1.70;;
22080;SDS011;11207;59.512;18.050;2022-07-29T05:28:28;3.93;;;1.57;;
22080;SDS011;11207;59.512;18.050;2022-07-29T05:30:57;2.63;;;1.77;;
22080;SDS011;11207;59.512;18.050;2022-07-29T05:33:23;1.60;;;1.50;;
22080;SDS011;11207;59.512;18.050;2022-07-29T05:35:48;1.70;;;1.60;;
22080;SDS011;11207;59.512;18.050;2022-07-29T05:38:14;2.00;;;1.80;;
22080;SDS011;11207;59.512;18.050;2022-07-29T05:40:39;1.70;;;1.60;;
22080;SDS011;11207;59.512;18.050;2022-07-29T05:43:05;1.40;;;1.30;;
22080;SDS011;11207;59.512;18.050;2022-07-29T05:45:31;1.70;;;1.60;;
22080;SDS011;11207;59.512;18.050;2022-07-29T05:47:57;2.03;;;1.60;;
22080;SDS011;11207;59.512;18.050;2022-07-29T05:50:22;1.50;;;1.40;;
22080;SDS011;11207;59.512;18.050;2022-07-29T05:52:48;1.60;;;1.50;;
22080;SDS011;11207;59.512;18.050;2022-07-29T05:55:13;1.53;;;1.43;;
22080;SDS011;11207;59.512;18.050;2022-07-29T05:57:39;1.77;;;1.67;;
22080;SDS011;11207;59.512;18.050;2022-07-29T06:00:05;1.30;;;1.30;;
22080;SDS011;11207;59.512;18.050;2022-07-29T06:02:31;1.60;;;1.50;;
22080;SDS011;11207;59.512;18.050;2022-07-29T06:04:56;1.40;;;1.40;;
22080;SDS011;11207;59.512;18.050;2022-07-29T06:07:22;1.30;;;1.30;;
22080;SDS011;11207;59.512;18.050;2022-07-29T06:09:48;1.60;;;1.40;;
22080;SDS011;11207;59.512;18.050;2022-07-29T06:12:13;1.40;;;1.30;;
22080;SDS011;11207;59.512;18.050;2022-07-29T06:14:39;1.30;;;1.30;;
22080;SDS011;11207;59.512;18.050;2022-07-29T06:17:05;1.40;;;1.30;;
22080;SDS011;11207;59.512;18.050;2022-07-29T06:19:31;1.27;;;1.20;;
22080;SDS011;11207;59.512;18.050;2022-07-29T06:21:58;1.40;;;1.20;;
22080;SDS011;11207;59.512;18.050;2022-07-29T06:24:24;1.70;;;1.40;;
22080;SDS011;11207;59.512;18.050;2022-07-29T06:26:49;1.23;;;1.20;;
22080;SDS011;11207;59.512;18.050;2022-07-29T06:29:15;1.43;;;1.33;;
22080;SDS011;11207;59.512;18.050;2022-07-29T06:31:41;1.33;;;1.23;;
22080;SDS011;11207;59.512;18.050;2022-07-29T06:34:06;1.30;;;1.20;;
22080;SDS011;11207;59.512;18.050;2022-07-29T06:36:36;1.30;;;1.20;;
22080;SDS011;11207;59.512;18.050;2022-07-29T06:39:08;1.10;;;1.10;;
22080;SDS011;11207;59.512;18.050;2022-07-29T06:41:34;1.20;;;1.10;;
22080;SDS011;11207;59.512;18.050;2022-07-29T06:44:00;1.10;;;1.10;;
22080;SDS011;11207;59.512;18.050;2022-07-29T06:46:26;1.10;;;1.00;;
22080;SDS011;11207;59.512;18.050;2022-07-29T06:48:52;1.13;;;1.10;;
22080;SDS011;11207;59.512;18.050;2022-07-29T06:51:18;0.90;;;0.90;;
22080;SDS011;11207;59.512;18.050;2022-07-29T06:53:44;1.13;;;1.03;;
22080;SDS011;11207;59.512;18.050;2022-07-29T06:56:10;1.10;;;1.10;;
22080;SDS011;11207;59.512;18.050;2022-07-29T06:58:38;1.00;;;1.00;;
22080;SDS011;11207;59.512;18.050;2022-07-29T07:01:05;1.00;;;1.00;;
22080;SDS011;11207;59.512;18.050;2022-07-29T07:03:31;0.97;;;0.97;;
22080;SDS011;11207;59.512;18.050;2022-07-29T07:05:58;1.00;;;1.00;;
22080;SDS011;11207;59.512;18.050;2022-07-29T07:08:24;1.70;;;0.93;;
22080;SDS011;11207;59.512;18.050;2022-07-29T07:10:50;1.00;;;1.00;;
22080;SDS011;11207;59.512;18.050;2022-07-29T07:13:16;1.03;;;1.03;;
22080;SDS011;11207;59.512;18.050;2022-07-29T07:15:42;3.50;;;0.90;;
22080;SDS011;11207;59.512;18.050;2022-07-29T07:18:09;1.10;;;0.90;;
22080;SDS011;11207;59.512;18.050;2022-07-29T07:20:35;1.00;;;0.90;;
22080;SDS011;11207;59.512;18.050;2022-07-29T07:23:01;0.80;;;0.80;;
22080;SDS011;11207;59.512;18.050;2022-07-29T07:25:27;0.80;;;0.80;;
22080;SDS011;11207;59.512;18.050;2022-07-29T07:27:52;0.80;;;0.80;;
22080;SDS011;11207;59.512;18.050;2022-07-29T07:30:18;0.90;;;0.90;;
22080;SDS011;11207;59.512;18.050;2022-07-29T07:32:44;0.80;;;0.80;;
22080;SDS011;11207;59.512;18.050;2022-07-29T07:35:10;0.80;;;0.80;;
22080;SDS011;11207;59.512;18.050;2022-07-29T07:37:36;0.70;;;0.70;;
22080;SDS011;11207;59.512;18.050;2022-07-29T07:40:02;0.80;;;0.80;;
22080;SDS011;11207;59.512;18.050;2022-07-29T07:42:29;0.70;;;0.70;;
22080;SDS011;11207;59.512;18.050;2022-07-29T07:44:55;0.70;;;0.70;;
22080;SDS011;11207;59.512;18.050;2022-07-29T07:47:21;1.67;;;0.70;;
22080;SDS011;11207;59.512;18.050;2022-07-29T07:49:49;1.80;;;0.70;;
22080;SDS011;11207;59.512;18.050;2022-07-29T07:52:15;0.60;;;0.60;;
22080;SDS011;11207;59.512;18.050;2022-07-29T07:54:41;0.70;;;0.70;;
22080;SDS011;11207;59.512;18.050;2022-07-29T07:57:09;0.77;;;0.77;;
22080;SDS011;11207;59.512;18.050;2022-07-29T07:59:34;0.57;;;0.57;;
22080;SDS011;11207;59.512;18.050;2022-07-29T08:02:00;0.57;;;0.57;;
22080;SDS011;11207;59.512;18.050;2022-07-29T08:04:26;0.70;;;0.70;;
22080;SDS011;11207;59.512;18.050;2022-07-29T08:06:52;0.70;;;0.70;;
22080;SDS011;11207;59.512;18.050;2022-07-29T08:09:19;0.70;;;0.70;;
22080;SDS011;11207;59.512;18.050;2022-07-29T08:11:45;0.70;;;0.70;;
22080;SDS011;11207;59.512;18.050;2022-07-29T08:14:11;1.33;;;0.90;;
22080;SDS011;11207;59.512;18.050;2022-07-29T08:16:38;0.65;;;0.65;;
22080;SDS011;11207;59.512;18.050;2022-07-29T08:19:05;0.60;;;0.60;;
22080;SDS011;11207;59.512;18.050;2022-07-29T08:21:31;0.45;;;0.45;;
22080;SDS011;11207;59.512;18.050;2022-07-29T08:23:57;0.60;;;0.60;;
22080;SDS011;11207;59.512;18.050;2022-07-29T08:26:42;1.00;;;0.60;;
22080;SDS011;11207;59.512;18.050;2022-07-29T08:29:08;1.17;;;0.47;;
22080;SDS011;11207;59.512;18.050;2022-07-29T08:31:38;1.75;;;0.60;;
22080;SDS011;11207;59.512;18.050;2022-07-29T08:34:05;0.57;;;0.57;;
22080;SDS011;11207;59.512;18.050;2022-07-29T08:36:32;1.15;;;0.50;;
22080;SDS011;11207;59.512;18.050;2022-07-29T08:38:58;0.68;;;0.50;;
22080;SDS011;11207;59.512;18.050;2022-07-29T08:41:25;0.40;;;0.40;;
22080;SDS011;11207;59.512;18.050;2022-07-29T08:43:51;1.05;;;0.65;;
22080;SDS011;11207;59.512;18.050;2022-07-29T08:46:18;0.40;;;0.40;;
22080;SDS011;11207;59.512;18.050;2022-07-29T08:48:44;0.57;;;0.57;;
22080;SDS011;11207;59.512;18.050;2022-07-29T08:51:19;0.40;;;0.40;;
22080;SDS011;11207;59.512;18.050;2022-07-29T08:53:46;0.70;;;0.70;;
22080;SDS011;11207;59.512;18.050;2022-07-29T08:56:14;0.50;;;0.50;;
22080;SDS011;11207;59.512;18.050;2022-07-29T08:58:42;0.65;;;0.65;;
22080;SDS011;11207;59.512;18.050;2022-07-29T09:01:08;0.50;;;0.50;;
22080;SDS011;11207;59.512;18.050;2022-07-29T09:03:36;0.47;;;0.47;;
22080;SDS011;11207;59.512;18.050;2022-07-29T09:06:04;0.62;;;0.62;;
22080;SDS011;11207;59.512;18.050;2022-07-29T09:08:30;1.80;;;0.52;;
22080;SDS011;11207;59.512;18.050;2022-07-29T09:10:56;0.40;;;0.40;;
22080;SDS011;11207;59.512;18.050;2022-07-29T09:13:23;0.40;;;0.40;;
22080;SDS011;11207;59.512;18.050;2022-07-29T09:15:49;0.47;;;0.40;;
22080;SDS011;11207;59.512;18.050;2022-07-29T09:18:34;0.40;;;0.40;;
22080;SDS011;11207;59.512;18.050;2022-07-29T09:21:02;0.37;;;0.37;;
22080;SDS011;11207;59.512;18.050;2022-07-29T09:26:29;0.47;;;0.47;;
22080;SDS011;11207;59.512;18.050;2022-07-29T09:28:56;0.45;;;0.45;;
22080;SDS011;11207;59.512;18.050;2022-07-29T09:31:34;1.30;;;0.40;;
22080;SDS011;11207;59.512;18.050;2022-07-29T09:34:01;0.57;;;0.57;;
22080;SDS011;11207;59.512;18.050;2022-07-29T09:36:27;0.60;;;0.60;;
22080;SDS011;11207;59.512;18.050;2022-07-29T09:38:59;2.00;;;0.73;;
22080;SDS011;11207;59.512;18.050;2022-07-29T09:41:26;0.60;;;0.60;;
22080;SDS011;11207;59.512;18.050;2022-07-29T09:43:59;0.57;;;0.57;;
22080;SDS011;11207;59.512;18.050;2022-07-29T09:46:25;0.40;;;0.40;;
22080;SDS011;11207;59.512;18.050;2022-07-29T09:49:24;0.30;;;0.30;;
22080;SDS011;11207;59.512;18.050;2022-07-29T09:51:43;0.60;;;0.60;;
22080;SDS011;11207;59.512;18.050;2022-07-29T09:54:24;0.40;;;0.40;;
22080;SDS011;11207;59.512;18.050;2022-07-29T09:56:51;0.70;;;0.70;;
22080;SDS011;11207;59.512;18.050;2022-07-29T09:59:17;2.20;;;0.50;;
22080;SDS011;11207;59.512;18.050;2022-07-29T10:01:46;1.20;;;0.47;;
22080;SDS011;11207;59.512;18.050;2022-07-29T10:04:15;0.40;;;0.40;;
22080;SDS011;11207;59.512;18.050;2022-07-29T10:09:23;0.40;;;0.40;;
22080;SDS011;11207;59.512;18.050;2022-07-29T10:12:02;0.65;;;0.60;;
22080;SDS011;11207;59.512;18.050;2022-07-29T10:14:34;0.65;;;0.50;;
22080;SDS011;11207;59.512;18.050;2022-07-29T10:17:00;1.27;;;0.65;;
22080;SDS011;11207;59.512;18.050;2022-07-29T10:19:28;0.50;;;0.50;;
22080;SDS011;11207;59.512;18.050;2022-07-29T10:21:56;0.70;;;0.70;;
22080;SDS011;11207;59.512;18.050;2022-07-29T10:24:23;0.65;;;0.60;;
22080;SDS011;11207;59.512;18.050;2022-07-29T10:26:50;0.60;;;0.60;;
22080;SDS011;11207;59.512;18.050;2022-07-29T10:29:18;0.50;;;0.50;;
22080;SDS011;11207;59.512;18.050;2022-07-29T10:31:53;0.40;;;0.40;;
22080;SDS011;11207;59.512;18.050;2022-07-29T10:40:00;0.60;;;0.60;;
22080;SDS011;11207;59.512;18.050;2022-07-29T10:42:54;0.40;;;0.40;;
22080;SDS011;11207;59.512;18.050;2022-07-29T10:45:24;0.40;;;0.40;;
22080;SDS011;11207;59.512;18.050;2022-07-29T10:48:01;3.60;;;0.68;;
22080;SDS011;11207;59.512;18.050;2022-07-29T10:50:51;0.75;;;0.50;;
22080;SDS011;11207;59.512;18.050;2022-07-29T10:53:22;0.30;;;0.30;;
22080;SDS011;11207;59.512;18.050;2022-07-29T10:55:48;0.40;;;0.40;;
22080;SDS011;11207;59.512;18.050;2022-07-29T10:58:22;1.17;;;0.52;;
22080;SDS011;11207;59.512;18.050;2022-07-29T11:00:51;0.50;;;0.50;;
22080;SDS011;11207;59.512;18.050;2022-07-29T11:06:06;0.40;;;0.40;;
22080;SDS011;11207;59.512;18.050;2022-07-29T11:08:32;0.57;;;0.57;;
22080;SDS011;11207;59.512;18.050;2022-07-29T11:13:56;0.60;;;0.60;;
22080;SDS011;11207;59.512;18.050;2022-07-29T11:16:22;0.43;;;0.43;;
22080;SDS011;11207;59.512;18.050;2022-07-29T11:19:34;1.60;;;0.68;;
22080;SDS011;11207;59.512;18.050;2022-07-29T11:21:37;0.43;;;0.43;;
22080;SDS011;11207;59.512;18.050;2022-07-29T11:24:17;0.52;;;0.52;;
22080;SDS011;11207;59.512;18.050;2022-07-29T11:26:59;0.60;;;0.60;;
22080;SDS011;11207;59.512;18.050;2022-07-29T11:29:39;0.57;;;0.57;;
22080;SDS011;11207;59.512;18.050;2022-07-29T11:32:14;0.50;;;0.50;;
22080;SDS011;11207;59.512;18.050;2022-07-29T11:34:42;0.50;;;0.50;;
22080;SDS011;11207;59.512;18.050;2022-07-29T11:47:33;0.60;;;0.52;;
22080;SDS011;11207;59.512;18.050;2022-07-29T11:50:02;0.95;;;0.52;;
22080;SDS011;11207;59.512;18.050;2022-07-29T11:52:33;0.50;;;0.50;;
22080;SDS011;11207;59.512;18.050;2022-07-29T11:55:02;0.55;;;0.43;;
22080;SDS011;11207;59.512;18.050;2022-07-29T11:57:29;0.40;;;0.40;;
22080;SDS011;11207;59.512;18.050;2022-07-29T11:59:55;0.65;;;0.50;;
22080;SDS011;11207;59.512;18.050;2022-07-29T12:02:22;0.30;;;0.30;;
22080;SDS011;11207;59.512;18.050;2022-07-29T12:07:26;0.60;;;0.50;;
22080;SDS011;11207;59.512;18.050;2022-07-29T12:09:52;0.50;;;0.50;;
22080;SDS011;11207;59.512;18.050;2022-07-29T12:12:18;0.57;;;0.52;;
22080;SDS011;11207;59.512;18.050;2022-07-29T12:14:45;1.98;;;0.68;;
22080;SDS011;11207;59.512;18.050;2022-07-29T12:20:03;0.75;;;0.52;;
22080;SDS011;11207;59.512;18.050;2022-07-29T12:22:30;0.40;;;0.40;;
22080;SDS011;11207;59.512;18.050;2022-07-29T12:25:16;0.60;;;0.60;;
22080;SDS011;11207;59.512;18.050;2022-07-29T12:27:43;0.57;;;0.57;;
22080;SDS011;11207;59.512;18.050;2022-07-29T12:30:13;0.60;;;0.60;;
22080;SDS011;11207;59.512;18.050;2022-07-29T12:35:12;0.45;;;0.45;;
22080;SDS011;11207;59.512;18.050;2022-07-29T12:37:39;0.60;;;0.60;;
22080;SDS011;11207;59.512;18.050;2022-07-29T12:40:06;0.50;;;0.50;;
22080;SDS011;11207;59.512;18.050;2022-07-29T12:42:34;0.45;;;0.45;;
22080;SDS011;11207;59.512;18.050;2022-07-29T12:45:00;0.22;;;0.22;;
22080;SDS011;11207;59.512;18.050;2022-07-29T12:47:28;0.50;;;0.50;;
22080;SDS011;11207;59.512;18.050;2022-07-29T12:50:10;0.45;;;0.45;;
22080;SDS011;11207;59.512;18.050;2022-07-29T12:52:39;0.80;;;0.70;;
22080;SDS011;11207;59.512;18.050;2022-07-29T12:55:05;0.45;;;0.45;;
22080;SDS011;11207;59.512;18.050;2022-07-29T12:57:31;0.60;;;0.60;;
22080;SDS011;11207;59.512;18.050;2022-07-29T13:02:35;0.80;;;0.60;;
22080;SDS011;11207;59.512;18.050;2022-07-29T13:05:01;0.62;;;0.60;;
22080;SDS011;11207;59.512;18.050;2022-07-29T13:07:30;0.60;;;0.60;;
22080;SDS011;11207;59.512;18.050;2022-07-29T13:12:39;0.70;;;0.70;;
22080;SDS011;11207;59.512;18.050;2022-07-29T13:15:29;0.60;;;0.60;;
22080;SDS011;11207;59.512;18.050;2022-07-29T13:17:55;0.62;;;0.62;;
22080;SDS011;11207;59.512;18.050;2022-07-29T13:20:23;0.65;;;0.65;;
22080;SDS011;11207;59.512;18.050;2022-07-29T13:22:52;0.60;;;0.50;;
22080;SDS011;11207;59.512;18.050;2022-07-29T13:25:51;0.60;;;0.60;;
22080;SDS011;11207;59.512;18.050;2022-07-29T13:28:10;1.25;;;0.80;;
22080;SDS011;11207;59.512;18.050;2022-07-29T13:30:36;0.45;;;0.45;;
22080;SDS011;11207;59.512;18.050;2022-07-29T13:33:02;0.68;;;0.62;;
22080;SDS011;11207;59.512;18.050;2022-07-29T13:35:28;0.88;;;0.62;;
22080;SDS011;11207;59.512;18.050;2022-07-29T13:37:54;1.30;;;0.50;;
22080;SDS011;11207;59.512;18.050;2022-07-29T13:40:20;0.70;;;0.70;;
22080;SDS011;11207;59.512;18.050;2022-07-29T13:42:46;0.62;;;0.62;;
22080;SDS011;11207;59.512;18.050;2022-07-29T13:45:12;0.70;;;0.70;;
22080;SDS011;11207;59.512;18.050;2022-07-29T13:47:38;0.60;;;0.60;;
22080;SDS011;11207;59.512;18.050;2022-07-29T13:50:05;0.60;;;0.60;;
22080;SDS011;11207;59.512;18.050;2022-07-29T13:52:31;0.62;;;0.62;;
22080;SDS011;11207;59.512;18.050;2022-07-29T13:54:57;0.50;;;0.50;;
22080;SDS011;11207;59.512;18.050;2022-07-29T13:57:23;0.60;;;0.60;;
22080;SDS011;11207;59.512;18.050;2022-07-29T13:59:49;0.45;;;0.45;;
22080;SDS011;11207;59.512;18.050;2022-07-29T14:02:16;0.60;;;0.60;;
22080;SDS011;11207;59.512;18.050;2022-07-29T14:04:41;0.70;;;0.70;;
22080;SDS011;11207;59.512;18.050;2022-07-29T14:07:07;0.70;;;0.70;;
22080;SDS011;11207;59.512;18.050;2022-07-29T14:09:33;0.77;;;0.77;;
22080;SDS011;11207;59.512;18.050;2022-07-29T14:11:58;0.60;;;0.60;;
22080;SDS011;11207;59.512;18.050;2022-07-29T14:14:24;0.75;;;0.75;;
22080;SDS011;11207;59.512;18.050;2022-07-29T14:16:50;0.60;;;0.60;;
22080;SDS011;11207;59.512;18.050;2022-07-29T14:19:15;0.65;;;0.65;;
22080;SDS011;11207;59.512;18.050;2022-07-29T14:21:41;0.60;;;0.60;;
22080;SDS011;11207;59.512;18.050;2022-07-29T14:24:07;0.93;;;0.70;;
22080;SDS011;11207;59.512;18.050;2022-07-29T14:26:32;0.88;;;0.57;;
22080;SDS011;11207;59.512;18.050;2022-07-29T14:28:58;0.60;;;0.60;;
22080;SDS011;11207;59.512;18.050;2022-07-29T14:31:24;0.50;;;0.50;;
22080;SDS011;11207;59.512;18.050;2022-07-29T14:33:49;0.70;;;0.70;;
22080;SDS011;11207;59.512;18.050;2022-07-29T14:36:15;0.80;;;0.80;;
22080;SDS011;11207;59.512;18.050;2022-07-29T14:38:40;0.52;;;0.50;;
22080;SDS011;11207;59.512;18.050;2022-07-29T14:41:06;0.73;;;0.73;;
22080;SDS011;11207;59.512;18.050;2022-07-29T14:43:33;0.47;;;0.47;;
22080;SDS011;11207;59.512;18.050;2022-07-29T14:45:59;0.80;;;0.80;;
22080;SDS011;11207;59.512;18.050;2022-07-29T14:48:25;0.70;;;0.70;;
22080;SDS011;11207;59.512;18.050;2022-07-29T14:50:51;0.77;;;0.77;;
22080;SDS011;11207;59.512;18.050;2022-07-29T14:53:16;0.80;;;0.80;;
22080;SDS011;11207;59.512;18.050;2022-07-29T14:55:42;0.70;;;0.70;;
22080;SDS011;11207;59.512;18.050;2022-07-29T14:58:09;0.80;;;0.80;;
22080;SDS011;11207;59.512;18.050;2022-07-29T15:00:35;0.90;;;0.80;;
22080;SDS011;11207;59.512;18.050;2022-07-29T15:03:01;0.70;;;0.70;;
22080;SDS011;11207;59.512;18.050;2022-07-29T15:05:28;1.77;;;0.80;;
22080;SDS011;11207;59.512;18.050;2022-07-29T15:07:54;0.62;;;0.60;;
22080;SDS011;11207;59.512;18.050;2022-07-29T15:10:20;0.85;;;0.85;;
22080;SDS011;11207;59.512;18.050;2022-07-29T15:12:46;0.70;;;0.70;;
22080;SDS011;11207;59.512;18.050;2022-07-29T15:15:12;1.08;;;0.90;;
22080;SDS011;11207;59.512;18.050;2022-07-29T15:17:37;1.62;;;0.62;;
22080;SDS011;11207;59.512;18.050;2022-07-29T15:20:03;0.80;;;0.80;;
22080;SDS011;11207;59.512;18.050;2022-07-29T15:22:29;0.68;;;0.68;;
22080;SDS011;11207;59.512;18.050;2022-07-29T15:24:55;0.62;;;0.62;;
22080;SDS011;11207;59.512;18.050;2022-07-29T15:27:21;0.65;;;0.65;;
22080;SDS011;11207;59.512;18.050;2022-07-29T15:29:46;0.60;;;0.60;;